createdAt,value
2023-02-11T00:00:11.854Z,0.06
2023-02-11T00:02:39.343Z,-0.01
2023-02-11T00:05:31.213Z,-0.30
2023-02-11T00:07:59.594Z,-0.62
2023-02-11T00:10:26.364Z,-0.78
2023-02-11T00:12:53.319Z,-0.98
2023-02-11T00:15:20.159Z,-1.10
2023-02-11T00:17:48.904Z,-1.21
2023-02-11T00:20:15.991Z,-1.21
2023-02-11T00:22:43.823Z,-1.25
2023-02-11T00:25:10.611Z,-1.26
2023-02-11T00:27:39.358Z,-1.26
2023-02-11T00:30:11.427Z,-1.34
2023-02-11T00:32:38.387Z,-1.31
2023-02-11T00:35:07.272Z,-1.36
2023-02-11T00:37:35.795Z,-1.46
2023-02-11T00:40:06.708Z,-1.51
2023-02-11T00:42:35.805Z,-1.57
2023-02-11T00:45:03.645Z,-1.73
2023-02-11T00:47:31.270Z,-1.82
2023-02-11T00:49:59.714Z,-1.81
2023-02-11T00:55:19.270Z,-1.88
2023-02-11T00:57:46.466Z,-1.95
2023-02-11T01:00:17.429Z,-1.92
2023-02-11T01:02:45.346Z,-1.89
2023-02-11T01:05:12.169Z,-1.90
2023-02-11T01:07:39.277Z,-1.89
2023-02-11T01:10:06.333Z,-1.95
2023-02-11T01:12:36.955Z,-2.07
2023-02-11T01:15:05.413Z,-2.01
2023-02-11T01:17:33.646Z,-2.07
2023-02-11T01:20:06.284Z,-2.24
2023-02-11T01:22:34.849Z,-2.27
2023-02-11T01:25:03.398Z,-2.31
2023-02-11T01:27:30.819Z,-2.30
2023-02-11T01:29:57.768Z,-2.25
2023-02-11T01:32:25.479Z,-2.29
2023-02-11T01:34:55.002Z,-2.30
2023-02-11T01:37:21.860Z,-2.37
2023-02-11T01:39:49.312Z,-2.43
2023-02-11T01:42:20.619Z,-2.49
2023-02-11T01:44:52.302Z,-2.42
2023-02-11T01:47:20.867Z,-2.44
2023-02-11T01:49:58.307Z,-2.46
2023-02-11T01:52:39.830Z,-2.47
2023-02-11T01:55:13.898Z,-2.43
2023-02-11T01:57:45.493Z,-2.51
2023-02-11T02:00:22.294Z,-2.57
2023-02-11T02:02:58.597Z,-2.65
2023-02-11T02:05:47.431Z,-2.70
2023-02-11T02:08:55.062Z,-2.69
2023-02-11T02:11:26.387Z,-2.76
2023-02-11T02:13:53.319Z,-2.86
2023-02-11T02:16:31.478Z,-2.93
2023-02-11T02:19:19.688Z,-2.94
2023-02-11T02:25:33.250Z,-2.93
2023-02-11T02:28:38.175Z,-2.90
2023-02-11T02:31:12.515Z,-2.92
2023-02-11T02:34:29.349Z,-2.92
2023-02-11T02:37:05.331Z,-2.93
2023-02-11T02:39:35.916Z,-2.93
2023-02-11T02:42:06.348Z,-2.98
2023-02-11T02:44:34.834Z,-3.02
2023-02-11T02:47:04.431Z,-2.94
2023-02-11T02:49:31.446Z,-2.94
2023-02-11T02:52:28.450Z,-2.91
2023-02-11T02:55:48.163Z,-2.99
2023-02-11T02:58:50.373Z,-3.00
2023-02-11T03:01:28.833Z,-3.00
2023-02-11T03:04:12.764Z,-3.01
2023-02-11T03:06:56.003Z,-3.07
2023-02-11T03:09:32.715Z,-3.04
2023-02-11T03:12:02.513Z,-3.17
2023-02-11T03:14:32.284Z,-3.11
2023-02-11T03:17:03.442Z,-3.13
2023-02-11T03:19:42.360Z,-3.02
2023-02-11T03:22:16.872Z,-2.94
2023-02-11T03:24:45.081Z,-2.90
2023-02-11T03:27:29.236Z,-2.86
2023-02-11T03:30:12.464Z,-2.79
2023-02-11T03:32:49.402Z,-2.74
2023-02-11T03:35:41.487Z,-2.77
2023-02-11T03:38:22.020Z,-2.78
2023-02-11T03:40:53.556Z,-2.52
2023-02-11T03:43:29.389Z,-2.44
2023-02-11T03:45:59.401Z,-2.35
2023-02-11T03:48:31.164Z,-2.19
2023-02-11T03:51:03.371Z,-1.73
2023-02-11T03:53:30.194Z,-1.47
2023-02-11T03:56:00.437Z,-1.28
2023-02-11T03:58:28.006Z,-1.59
2023-02-11T04:00:55.392Z,-1.60
2023-02-11T04:03:22.272Z,-1.62
2023-02-11T04:05:51.363Z,-1.65
2023-02-11T04:08:18.468Z,-1.76
2023-02-11T04:10:45.227Z,-1.80
2023-02-11T04:13:38.400Z,-1.89
2023-02-11T04:16:05.998Z,-1.93
2023-02-11T04:18:33.440Z,-1.97
2023-02-11T04:21:00.286Z,-2.03
2023-02-11T04:23:27.065Z,-2.01
2023-02-11T04:25:53.867Z,-1.97
2023-02-11T04:28:20.761Z,-1.96
2023-02-11T04:30:50.602Z,-1.94
2023-02-11T04:33:18.025Z,-2.04
2023-02-11T04:35:45.349Z,-2.04
2023-02-11T04:38:12.468Z,-2.17
2023-02-11T04:40:39.685Z,-2.13
2023-02-11T04:43:07.101Z,-2.29
2023-02-11T04:48:27.397Z,-2.28
2023-02-11T04:50:56.298Z,-2.37
2023-02-11T04:53:24.737Z,-2.34
2023-02-11T04:55:52.404Z,-2.26
2023-02-11T04:58:20.044Z,-2.30
2023-02-11T05:03:39.399Z,-1.90
2023-02-11T05:06:07.406Z,-1.73
2023-02-11T05:08:34.932Z,-1.72
2023-02-11T05:11:02.140Z,-1.65
2023-02-11T05:13:29.559Z,-1.26
2023-02-11T05:15:56.735Z,-0.91
2023-02-11T05:18:24.446Z,-0.69
2023-02-11T05:20:53.327Z,-0.52
2023-02-11T05:23:20.889Z,-0.22
2023-02-11T05:25:47.994Z,0.11
2023-02-11T05:28:14.953Z,0.06
2023-02-11T05:30:42.705Z,0.10
2023-02-11T05:33:09.890Z,0.03
2023-02-11T05:35:37.990Z,-0.14
2023-02-11T05:38:04.812Z,0.13
2023-02-11T05:40:31.841Z,0.12
2023-02-11T05:42:59.428Z,0.02
2023-02-11T05:45:26.208Z,0.04
2023-02-11T05:47:54.453Z,-0.08
2023-02-11T05:50:21.300Z,-0.11
2023-02-11T05:52:52.986Z,-0.08
2023-02-11T05:55:20.896Z,0.02
2023-02-11T05:57:52.692Z,-0.03
2023-02-11T06:00:44.472Z,0.12
2023-02-11T06:03:14.567Z,0.15
2023-02-11T06:05:43.620Z,0.34
2023-02-11T06:08:10.551Z,0.33
2023-02-11T06:10:39.454Z,0.26
2023-02-11T06:13:06.253Z,0.31
2023-02-11T06:15:33.950Z,0.40
2023-02-11T06:18:00.930Z,0.42
2023-02-11T06:20:27.684Z,0.48
2023-02-11T06:22:57.924Z,0.44
2023-02-11T06:25:24.703Z,0.75
2023-02-11T06:27:55.111Z,0.75
2023-02-11T06:30:48.661Z,0.72
2023-02-11T06:33:15.757Z,0.59
2023-02-11T06:35:42.562Z,0.56
2023-02-11T06:38:09.502Z,0.52
2023-02-11T06:41:01.580Z,0.69
2023-02-11T06:43:28.507Z,1.08
2023-02-11T06:46:20.234Z,1.11
2023-02-11T06:48:47.266Z,1.10
2023-02-11T06:51:17.492Z,1.05
2023-02-11T06:53:46.626Z,1.14
2023-02-11T06:56:16.644Z,1.10
2023-02-11T06:58:43.545Z,1.18
2023-02-11T07:01:14.568Z,1.10
2023-02-11T07:03:43.775Z,1.15
2023-02-11T07:06:14.774Z,1.26
2023-02-11T07:08:41.787Z,1.49
2023-02-11T07:11:17.746Z,1.69
2023-02-11T07:13:45.635Z,1.84
2023-02-11T07:16:15.209Z,2.03
2023-02-11T07:18:43.719Z,2.00
2023-02-11T07:21:13.240Z,2.36
2023-02-11T07:23:42.570Z,2.47
2023-02-11T07:26:12.569Z,2.49
2023-02-11T07:28:42.675Z,2.67
2023-02-11T07:31:13.097Z,2.70
2023-02-11T07:33:41.726Z,2.72
2023-02-11T07:39:02.097Z,2.69
2023-02-11T07:41:28.994Z,2.80
2023-02-11T07:43:56.093Z,2.86
2023-02-11T07:46:27.366Z,2.91
2023-02-11T07:48:54.974Z,2.98
2023-02-11T07:51:24.883Z,3.02
2023-02-11T07:53:52.225Z,3.07
2023-02-11T07:56:21.996Z,3.04
2023-02-11T07:58:52.445Z,3.00
2023-02-11T08:01:25.218Z,3.00
2023-02-11T08:03:58.491Z,3.08
2023-02-11T08:06:28.393Z,3.07
2023-02-11T08:08:55.677Z,3.04
2023-02-11T08:11:26.425Z,3.11
2023-02-11T08:13:55.292Z,3.20
2023-02-11T08:16:24.751Z,3.20
2023-02-11T08:18:53.482Z,3.39
2023-02-11T08:21:21.994Z,3.27
2023-02-11T08:23:49.244Z,3.41
2023-02-11T08:26:26.473Z,3.53
2023-02-11T08:28:55.246Z,3.59
2023-02-11T08:31:25.006Z,3.53
2023-02-11T08:33:53.519Z,3.58
2023-02-11T08:36:23.769Z,3.63
2023-02-11T08:38:51.168Z,3.55
2023-02-11T08:41:20.616Z,3.42
2023-02-11T08:43:48.994Z,3.42
2023-02-11T08:46:18.825Z,3.50
2023-02-11T08:49:10.628Z,3.60
2023-02-11T08:51:37.538Z,3.67
2023-02-11T08:54:04.712Z,3.65
2023-02-11T08:56:31.759Z,3.71
2023-02-11T08:59:23.459Z,3.79
2023-02-11T09:02:16.568Z,3.86
2023-02-11T09:04:44.008Z,3.90
2023-02-11T09:07:12.526Z,3.85
2023-02-11T09:09:39.874Z,3.81
2023-02-11T09:12:07.921Z,3.86
2023-02-11T09:14:37.537Z,3.91
2023-02-11T09:17:05.048Z,3.89
2023-02-11T09:19:32.496Z,3.93
2023-02-11T09:21:59.632Z,3.98
2023-02-11T09:24:27.599Z,3.99
2023-02-11T09:26:54.340Z,4.03
2023-02-11T09:29:22.494Z,4.12
2023-02-11T09:31:49.435Z,4.24
2023-02-11T09:34:48.671Z,4.31
2023-02-11T09:37:16.030Z,4.42
2023-02-11T09:39:42.730Z,4.46
2023-02-11T09:45:19.748Z,4.56
2023-02-11T09:48:06.458Z,4.51
2023-02-11T09:50:45.483Z,4.51
2023-02-11T09:53:22.554Z,4.50
2023-02-11T09:55:54.471Z,4.46
2023-02-11T09:58:34.604Z,4.45
2023-02-11T10:01:21.110Z,4.48
2023-02-11T10:04:01.194Z,4.54
2023-02-11T10:06:50.647Z,4.62
2023-02-11T10:10:01.033Z,4.61
2023-02-11T10:12:43.511Z,4.62
2023-02-11T10:15:34.518Z,4.64
2023-02-11T10:18:20.468Z,4.65
2023-02-11T10:21:09.096Z,4.72
2023-02-11T10:23:41.140Z,4.82
2023-02-11T10:26:18.054Z,4.96
2023-02-11T10:28:52.827Z,4.99
2023-02-11T10:31:28.010Z,5.05
2023-02-11T10:34:03.221Z,5.12
2023-02-11T10:36:37.057Z,5.21
2023-02-11T10:39:22.558Z,5.35
2023-02-11T10:42:07.308Z,5.40
2023-02-11T10:44:55.521Z,5.35
2023-02-11T10:47:47.392Z,5.36
2023-02-11T10:50:39.942Z,5.39
2023-02-11T10:53:18.153Z,5.40
2023-02-11T10:55:52.482Z,5.43
2023-02-11T10:58:29.150Z,5.43
2023-02-11T11:00:59.808Z,5.49
2023-02-11T11:03:39.783Z,5.47
2023-02-11T11:06:09.949Z,5.52
2023-02-11T11:08:44.394Z,5.57
2023-02-11T11:11:16.495Z,5.59
2023-02-11T11:13:52.283Z,5.67
2023-02-11T11:16:26.340Z,5.68
2023-02-11T11:19:14.965Z,5.73
2023-02-11T11:21:42.564Z,5.80
2023-02-11T11:24:22.084Z,5.83
2023-02-11T11:26:56.517Z,5.94
2023-02-11T11:29:31.064Z,5.91
2023-02-11T11:32:33.696Z,5.98
2023-02-11T11:35:04.823Z,5.98
2023-02-11T11:37:38.525Z,5.99
2023-02-11T11:40:35.445Z,5.97
2023-02-11T11:46:10.275Z,5.99
2023-02-11T11:48:37.007Z,5.96
2023-02-11T11:51:11.757Z,5.97
2023-02-11T11:53:44.314Z,6.04
2023-02-11T11:56:25.518Z,6.10
2023-02-11T11:58:52.670Z,6.12
2023-02-11T12:01:35.524Z,6.19
2023-02-11T12:04:24.596Z,6.22
2023-02-11T12:07:12.371Z,6.24
2023-02-11T12:10:06.104Z,6.26
2023-02-11T12:13:04.533Z,6.24
2023-02-11T12:15:53.744Z,6.29
2023-02-11T12:18:54.450Z,6.35
2023-02-11T12:21:49.347Z,6.26
2023-02-11T12:24:56.612Z,6.27
2023-02-11T12:27:38.838Z,6.25
2023-02-11T12:30:40.808Z,6.33
2023-02-11T12:33:36.260Z,6.37
2023-02-11T12:36:30.542Z,6.32
2023-02-11T12:39:30.142Z,6.31
2023-02-11T12:42:32.575Z,6.34
2023-02-11T12:45:11.798Z,6.32
2023-02-11T12:48:08.313Z,6.37
2023-02-11T12:50:54.537Z,6.39
2023-02-11T12:53:26.530Z,6.42
2023-02-11T12:56:16.043Z,6.50
2023-02-11T12:58:46.746Z,6.55
2023-02-11T13:01:23.810Z,6.57
2023-02-11T13:04:11.249Z,6.59
2023-02-11T13:07:16.437Z,6.68
2023-02-11T13:10:06.479Z,6.68
2023-02-11T13:12:37.447Z,6.66
2023-02-11T13:15:08.531Z,6.68
2023-02-11T13:17:52.978Z,6.70
2023-02-11T13:20:48.699Z,6.70
2023-02-11T13:23:53.001Z,6.66
2023-02-11T13:26:32.604Z,6.60
2023-02-11T13:29:27.405Z,6.56
2023-02-11T13:32:14.139Z,6.43
2023-02-11T13:35:31.523Z,6.27
2023-02-11T13:38:02.623Z,6.14
2023-02-11T13:40:37.071Z,6.13
2023-02-11T13:43:09.510Z,6.05
2023-02-11T13:45:45.987Z,5.96
2023-02-11T13:48:26.949Z,5.98
2023-02-11T13:50:57.851Z,5.89
2023-02-11T13:53:30.745Z,5.89
2023-02-11T13:56:12.759Z,5.86
2023-02-11T13:58:55.000Z,5.89
2023-02-11T14:01:47.419Z,5.83
2023-02-11T14:07:27.929Z,5.85
2023-02-11T14:09:56.048Z,5.90
2023-02-11T14:12:35.918Z,5.88
2023-02-11T14:15:07.866Z,5.86
2023-02-11T14:17:36.818Z,5.81
2023-02-11T14:20:27.055Z,5.81
2023-02-11T14:22:57.274Z,5.81
2023-02-11T14:25:26.149Z,5.77
2023-02-11T14:28:03.559Z,5.74
2023-02-11T14:30:55.888Z,5.69
2023-02-11T14:33:43.650Z,5.71
2023-02-11T14:36:39.511Z,5.71
2023-02-11T14:39:28.445Z,5.66
2023-02-11T14:41:56.992Z,5.64
2023-02-11T14:44:30.326Z,5.64
2023-02-11T14:47:00.924Z,5.62
2023-02-11T14:49:40.095Z,5.62
2023-02-11T14:55:29.199Z,5.51
2023-02-11T14:58:32.475Z,5.43
2023-02-11T15:01:10.734Z,5.43
2023-02-11T15:03:48.510Z,5.35
2023-02-11T15:06:25.502Z,5.37
2023-02-11T15:09:19.377Z,5.32
2023-02-11T15:11:49.783Z,5.31
2023-02-11T15:14:35.218Z,5.28
2023-02-11T15:17:06.802Z,5.27
2023-02-11T15:19:41.996Z,5.26
2023-02-11T15:22:23.275Z,5.25
2023-02-11T15:25:10.717Z,5.25
2023-02-11T15:27:43.897Z,5.16
2023-02-11T15:30:23.240Z,5.16
2023-02-11T15:32:53.604Z,5.21
2023-02-11T15:35:23.114Z,5.19
2023-02-11T15:37:56.694Z,5.12
2023-02-11T15:40:28.522Z,5.11
2023-02-11T15:43:01.063Z,5.14
2023-02-11T15:45:31.355Z,5.12
2023-02-11T15:48:15.897Z,5.08
2023-02-11T15:50:53.764Z,5.05
2023-02-11T15:53:38.001Z,5.06
2023-02-11T15:56:23.090Z,5.03
2023-02-11T15:58:54.489Z,5.05
2023-02-11T16:01:37.846Z,5.06
2023-02-11T16:04:06.560Z,5.03
2023-02-11T16:06:42.849Z,4.96
2023-02-11T16:09:12.106Z,4.93
2023-02-11T16:11:46.906Z,4.87
2023-02-11T16:14:30.875Z,4.83
2023-02-11T16:17:09.922Z,4.82
2023-02-11T16:20:02.139Z,4.71
2023-02-11T16:22:32.523Z,4.74
2023-02-11T16:25:02.261Z,4.71
2023-02-11T16:27:41.965Z,4.75
2023-02-11T16:30:36.186Z,4.80
2023-02-11T16:33:09.524Z,4.76
2023-02-11T16:35:37.242Z,4.77
2023-02-11T16:38:08.041Z,4.80
2023-02-11T16:40:35.792Z,4.82
2023-02-11T16:43:03.684Z,4.81
2023-02-11T16:45:37.356Z,4.78
2023-02-11T16:48:09.490Z,4.86
2023-02-11T16:51:02.208Z,4.82
2023-02-11T16:53:30.643Z,4.78
2023-02-11T16:56:02.984Z,4.84
2023-02-11T16:58:30.753Z,4.88
2023-02-11T17:01:04.829Z,4.88
2023-02-11T17:03:57.020Z,4.85
2023-02-11T17:06:24.985Z,4.85
2023-02-11T17:08:53.151Z,4.82
2023-02-11T17:11:26.029Z,4.77
2023-02-11T17:13:53.311Z,4.72
2023-02-11T17:16:24.576Z,4.69
2023-02-11T17:18:53.404Z,4.63
2023-02-11T17:21:22.090Z,4.71
2023-02-11T17:23:50.478Z,4.73
2023-02-11T17:26:17.758Z,4.65
2023-02-11T17:28:45.604Z,4.70
2023-02-11T17:31:13.147Z,4.72
2023-02-11T17:33:43.052Z,4.70
2023-02-11T17:36:11.102Z,4.67
2023-02-11T17:38:41.074Z,4.69
2023-02-11T17:41:08.816Z,4.64
2023-02-11T17:43:36.101Z,4.58
2023-02-11T17:49:00.573Z,4.70
2023-02-11T17:51:31.939Z,4.68
2023-02-11T17:54:04.187Z,4.69
2023-02-11T17:56:35.921Z,4.71
2023-02-11T17:59:08.516Z,4.71
2023-02-11T18:01:37.489Z,4.74
2023-02-11T18:04:06.942Z,4.81
2023-02-11T18:06:34.844Z,4.81
2023-02-11T18:09:02.964Z,4.79
2023-02-11T18:11:33.918Z,4.77
2023-02-11T18:14:07.941Z,4.77
2023-02-11T18:16:38.243Z,4.80
2023-02-11T18:19:07.997Z,4.78
2023-02-11T18:21:36.139Z,4.85
2023-02-11T18:24:07.006Z,4.84
2023-02-11T18:26:35.907Z,4.81
2023-02-11T18:29:04.788Z,4.80
2023-02-11T18:31:33.640Z,4.85
2023-02-11T18:34:03.609Z,4.82
2023-02-11T18:36:32.252Z,4.83
2023-02-11T18:39:00.702Z,4.79
2023-02-11T18:41:29.123Z,4.78
2023-02-11T18:43:58.983Z,4.78
2023-02-11T18:46:26.804Z,4.79
2023-02-11T18:48:56.094Z,4.78
2023-02-11T18:51:49.176Z,4.80
2023-02-11T18:54:17.697Z,4.81
2023-02-11T18:56:46.324Z,4.84
2023-02-11T18:59:13.919Z,4.83
2023-02-11T19:01:42.140Z,4.85
2023-02-11T19:04:10.675Z,4.87
2023-02-11T19:06:41.741Z,4.88
2023-02-11T19:09:18.813Z,4.89
2023-02-11T19:14:40.005Z,4.88
2023-02-11T19:17:09.681Z,4.79
2023-02-11T19:19:43.474Z,4.74
2023-02-11T19:22:11.796Z,4.74
2023-02-11T19:24:39.508Z,4.72
2023-02-11T19:27:33.047Z,4.70
2023-02-11T19:30:07.322Z,4.74
2023-02-11T19:32:39.911Z,4.73
2023-02-11T19:35:35.457Z,4.81
2023-02-11T19:38:07.052Z,4.85
2023-02-11T19:40:35.204Z,4.84
2023-02-11T19:43:06.079Z,4.81
2023-02-11T19:45:34.044Z,4.83
2023-02-11T19:48:01.803Z,4.83
2023-02-11T19:50:32.634Z,4.85
2023-02-11T19:53:00.273Z,4.81
2023-02-11T19:55:29.065Z,4.84
2023-02-11T19:57:57.563Z,4.85
2023-02-11T20:00:25.545Z,4.91
2023-02-11T20:02:53.376Z,4.85
2023-02-11T20:05:24.845Z,4.87
2023-02-11T20:07:54.994Z,4.86
2023-02-11T20:10:24.536Z,4.84
2023-02-11T20:12:54.177Z,4.84
2023-02-11T20:15:23.299Z,4.83
2023-02-11T20:17:54.782Z,4.85
2023-02-11T20:20:22.756Z,4.84
2023-02-11T20:22:52.987Z,4.80
2023-02-11T20:25:20.553Z,4.80
2023-02-11T20:27:47.981Z,4.90
2023-02-11T20:30:16.095Z,4.84
2023-02-11T20:32:43.974Z,4.80
2023-02-11T20:35:12.207Z,4.88
2023-02-11T20:37:43.793Z,4.86
2023-02-11T20:40:13.990Z,4.82
2023-02-11T20:42:45.012Z,4.83
2023-02-11T20:45:12.592Z,4.82
2023-02-11T20:47:43.202Z,4.82
2023-02-11T20:50:11.677Z,4.82
2023-02-11T20:52:39.646Z,4.86
2023-02-11T20:55:07.235Z,4.84
2023-02-11T20:57:37.083Z,4.85
2023-02-11T21:00:06.372Z,4.88
2023-02-11T21:02:36.542Z,4.79
2023-02-11T21:05:04.745Z,4.81
2023-02-11T21:07:34.038Z,4.85
2023-02-11T21:10:03.349Z,4.84
2023-02-11T21:12:31.015Z,4.84
2023-02-11T21:14:58.975Z,4.86
2023-02-11T21:17:31.733Z,4.84
2023-02-11T21:20:00.990Z,4.86
2023-02-11T21:22:30.290Z,4.87
2023-02-11T21:27:51.954Z,4.86
2023-02-11T21:30:19.841Z,4.83
2023-02-11T21:32:49.991Z,4.78
2023-02-11T21:35:17.984Z,4.79
2023-02-11T21:37:46.052Z,4.74
2023-02-11T21:40:23.130Z,4.70
2023-02-11T21:42:51.910Z,4.72
2023-02-11T21:45:19.543Z,4.74
2023-02-11T21:48:14.066Z,4.74
2023-02-11T21:50:47.036Z,4.74
2023-02-11T21:53:15.125Z,4.75
2023-02-11T21:55:42.664Z,4.74
2023-02-11T21:58:13.668Z,4.70
2023-02-11T22:00:41.403Z,4.71
2023-02-11T22:03:08.416Z,4.68
2023-02-11T22:05:42.273Z,4.66
2023-02-11T22:08:10.337Z,4.67
2023-02-11T22:10:37.597Z,4.66
2023-02-11T22:13:05.545Z,4.67
2023-02-11T22:15:32.903Z,4.64
2023-02-11T22:18:00.075Z,4.60
2023-02-11T22:20:29.075Z,4.67
2023-02-11T22:22:58.481Z,4.69
2023-02-11T22:25:25.430Z,4.69
2023-02-11T22:27:52.401Z,4.72
2023-02-11T22:30:19.275Z,4.75
2023-02-11T22:32:47.125Z,4.72
2023-02-11T22:35:14.099Z,4.70
2023-02-11T22:37:41.053Z,4.71
2023-02-11T22:40:08.603Z,4.71
2023-02-11T22:42:40.600Z,4.71
2023-02-11T22:45:07.861Z,4.72
2023-02-11T22:47:35.138Z,4.79
2023-02-11T22:50:02.026Z,4.77
2023-02-11T22:52:32.026Z,4.77
2023-02-11T22:55:00.275Z,4.77
2023-02-11T22:57:27.631Z,4.79
2023-02-11T22:59:55.338Z,4.79
2023-02-11T23:02:22.197Z,4.75
2023-02-11T23:07:42.047Z,4.75
2023-02-11T23:10:09.692Z,4.78
2023-02-11T23:12:38.098Z,4.74
2023-02-11T23:15:05.626Z,4.70
2023-02-11T23:17:33.078Z,4.74
2023-02-11T23:20:00.619Z,4.71
2023-02-11T23:22:28.091Z,4.72
2023-02-11T23:24:55.234Z,4.72
2023-02-11T23:27:22.111Z,4.74
2023-02-11T23:29:49.618Z,4.73
2023-02-11T23:32:16.537Z,4.72
2023-02-11T23:34:44.629Z,4.72
2023-02-11T23:37:11.440Z,4.74
2023-02-11T23:39:39.224Z,4.69
2023-02-11T23:42:06.606Z,4.65
2023-02-11T23:44:37.042Z,4.68
2023-02-11T23:47:04.584Z,4.66
2023-02-11T23:49:31.524Z,4.70
2023-02-11T23:51:58.462Z,4.62
2023-02-11T23:54:26.214Z,4.66
2023-02-11T23:56:54.115Z,4.68
2023-02-11T23:59:21.167Z,4.65
